sensor_id;sensor_type;location;lat;lon;timestamp;pressure;altitude;pressure_sealevel;temperature;humidity
59419;BME280;45224;50.904;6.038;2024-03-06T00:01:30;99903.66;;;6.95;100.00
59419;BME280;45224;50.904;6.038;2024-03-06T00:03:01;99907.13;;;6.98;100.00
59419;BME280;45224;50.904;6.038;2024-03-06T00:04:31;99906.28;;;6.99;100.00
59419;BME280;45224;50.904;6.038;2024-03-06T00:06:02;99906.25;;;6.97;100.00
59419;BME280;45224;50.904;6.038;2024-03-06T00:07:32;99902.84;;;6.98;100.00
59419;BME280;45224;50.904;6.038;2024-03-06T00:09:03;99908.88;;;7.00;100.00
59419;BME280;45224;50.904;6.038;2024-03-06T00:10:33;99907.16;;;7.01;100.00
59419;BME280;45224;50.904;6.038;2024-03-06T00:12:04;99914.91;;;7.04;100.00
59419;BME280;45224;50.904;6.038;2024-03-06T00:13:36;99912.34;;;7.04;100.00
59419;BME280;45224;50.904;6.038;2024-03-06T00:15:07;99920.09;;;7.05;100.00
59419;BME280;45224;50.904;6.038;2024-03-06T00:16:38;99913.22;;;7.04;100.00
59419;BME280;45224;50.904;6.038;2024-03-06T00:18:08;99918.44;;;7.07;100.00
59419;BME280;45224;50.904;6.038;2024-03-06T00:19:40;99912.41;;;7.08;100.00
59419;BME280;45224;50.904;6.038;2024-03-06T00:21:10;99922.66;;;7.05;100.00
59419;BME280;45224;50.904;6.038;2024-03-06T00:22:42;99923.50;;;7.04;100.00
59419;BME280;45224;50.904;6.038;2024-03-06T00:24:15;99926.09;;;7.04;100.00
59419;BME280;45224;50.904;6.038;2024-03-06T00:25:46;99918.31;;;7.01;100.00
59419;BME280;45224;50.904;6.038;2024-03-06T00:27:17;99923.41;;;6.98;100.00
59419;BME280;45224;50.904;6.038;2024-03-06T00:28:47;99924.25;;;6.99;100.00
59419;BME280;45224;50.904;6.038;2024-03-06T00:30:18;99916.53;;;6.97;100.00
59419;BME280;45224;50.904;6.038;2024-03-06T00:31:48;99919.09;;;6.97;100.00
59419;BME280;45224;50.904;6.038;2024-03-06T00:33:19;99928.53;;;6.98;100.00
59419;BME280;45224;50.904;6.038;2024-03-06T00:34:49;99928.44;;;6.92;100.00
59419;BME280;45224;50.904;6.038;2024-03-06T00:36:20;99923.38;;;6.97;100.00
59419;BME280;45224;50.904;6.038;2024-03-06T00:37:52;99922.50;;;6.94;100.00
59419;BME280;45224;50.904;6.038;2024-03-06T00:39:23;99916.41;;;6.91;100.00
59419;BME280;45224;50.904;6.038;2024-03-06T00:40:54;99930.22;;;6.94;100.00
59419;BME280;45224;50.904;6.038;2024-03-06T00:42:27;99932.75;;;6.93;100.00
59419;BME280;45224;50.904;6.038;2024-03-06T00:43:57;99937.03;;;6.94;100.00
59419;BME280;45224;50.904;6.038;2024-03-06T00:45:28;99942.13;;;6.91;100.00
59419;BME280;45224;50.904;6.038;2024-03-06T00:46:58;99939.50;;;6.86;100.00
59419;BME280;45224;50.904;6.038;2024-03-06T00:48:29;99948.06;;;6.87;100.00
59419;BME280;45224;50.904;6.038;2024-03-06T00:50:00;99946.25;;;6.83;100.00
59419;BME280;45224;50.904;6.038;2024-03-06T00:51:30;99935.94;;;6.80;100.00
59419;BME280;45224;50.904;6.038;2024-03-06T00:53:02;99944.56;;;6.82;100.00
59419;BME280;45224;50.904;6.038;2024-03-06T00:54:35;99941.97;;;6.82;100.00
59419;BME280;45224;50.904;6.038;2024-03-06T00:56:07;99937.63;;;6.79;100.00
59419;BME280;45224;50.904;6.038;2024-03-06T00:57:37;99940.13;;;6.74;100.00
59419;BME280;45224;50.904;6.038;2024-03-06T00:59:07;99941.81;;;6.72;100.00
59419;BME280;45224;50.904;6.038;2024-03-06T01:00:38;99947.81;;;6.73;100.00
59419;BME280;45224;50.904;6.038;2024-03-06T01:02:09;99950.28;;;6.68;100.00
59419;BME280;45224;50.904;6.038;2024-03-06T01:03:39;99952.03;;;6.69;99.79
59419;BME280;45224;50.904;6.038;2024-03-06T01:05:10;99955.38;;;6.65;100.00
59419;BME280;45224;50.904;6.038;2024-03-06T01:06:40;99955.34;;;6.62;99.79
59419;BME280;45224;50.904;6.038;2024-03-06T01:08:11;99959.66;;;6.65;99.63
59419;BME280;45224;50.904;6.038;2024-03-06T01:09:41;99961.28;;;6.60;99.21
59419;BME280;45224;50.904;6.038;2024-03-06T01:11:12;99958.66;;;6.58;99.45
59419;BME280;45224;50.904;6.038;2024-03-06T01:12:44;99963.88;;;6.61;98.96
59419;BME280;45224;50.904;6.038;2024-03-06T01:14:16;99960.34;;;6.56;98.94
59419;BME280;45224;50.904;6.038;2024-03-06T01:15:46;99959.41;;;6.52;99.07
59419;BME280;45224;50.904;6.038;2024-03-06T01:17:17;99955.16;;;6.53;98.95
59419;BME280;45224;50.904;6.038;2024-03-06T01:18:47;99962.84;;;6.51;98.90
59419;BME280;45224;50.904;6.038;2024-03-06T01:20:18;99958.50;;;6.49;98.95
59419;BME280;45224;50.904;6.038;2024-03-06T01:21:48;99971.34;;;6.49;98.40
59419;BME280;45224;50.904;6.038;2024-03-06T01:23:19;99969.59;;;6.46;98.48
59419;BME280;45224;50.904;6.038;2024-03-06T01:24:49;99971.22;;;6.43;98.43
59419;BME280;45224;50.904;6.038;2024-03-06T01:26:21;99968.63;;;6.43;98.39
59419;BME280;45224;50.904;6.038;2024-03-06T01:27:51;99967.78;;;6.42;98.27
59419;BME280;45224;50.904;6.038;2024-03-06T01:29:21;99969.41;;;6.37;98.10
59419;BME280;45224;50.904;6.038;2024-03-06T01:30:52;99960.81;;;6.35;98.16
59419;BME280;45224;50.904;6.038;2024-03-06T01:32:22;99965.09;;;6.36;98.38
59419;BME280;45224;50.904;6.038;2024-03-06T01:33:53;99964.22;;;6.35;98.16
59419;BME280;45224;50.904;6.038;2024-03-06T01:35:24;99964.16;;;6.32;97.81
59419;BME280;45224;50.904;6.038;2024-03-06T01:36:55;99965.94;;;6.35;97.79
59419;BME280;45224;50.904;6.038;2024-03-06T01:38:26;99966.72;;;6.32;97.62
59419;BME280;45224;50.904;6.038;2024-03-06T01:39:56;99976.16;;;6.32;97.58
59419;BME280;45224;50.904;6.038;2024-03-06T01:41:26;99965.81;;;6.29;97.32
59419;BME280;45224;50.904;6.038;2024-03-06T01:42:57;99972.63;;;6.27;97.50
59419;BME280;45224;50.904;6.038;2024-03-06T01:44:28;99972.66;;;6.28;97.47
59419;BME280;45224;50.904;6.038;2024-03-06T01:45:58;99980.31;;;6.25;97.24
59419;BME280;45224;50.904;6.038;2024-03-06T01:47:31;99971.69;;;6.23;97.19
59419;BME280;45224;50.904;6.038;2024-03-06T01:49:01;99974.22;;;6.21;97.28
59419;BME280;45224;50.904;6.038;2024-03-06T01:50:31;99973.28;;;6.18;97.08
59419;BME280;45224;50.904;6.038;2024-03-06T01:52:03;99980.97;;;6.16;97.06
59419;BME280;45224;50.904;6.038;2024-03-06T01:53:34;99978.34;;;6.15;96.76
59419;BME280;45224;50.904;6.038;2024-03-06T01:55:06;99983.41;;;6.12;97.02
59419;BME280;45224;50.904;6.038;2024-03-06T01:56:39;99977.38;;;6.08;97.04
59419;BME280;45224;50.904;6.038;2024-03-06T01:58:14;99985.03;;;6.07;97.07
59419;BME280;45224;50.904;6.038;2024-03-06T01:59:45;99977.25;;;6.03;97.03
59419;BME280;45224;50.904;6.038;2024-03-06T02:01:16;99981.50;;;6.01;96.91
59419;BME280;45224;50.904;6.038;2024-03-06T02:02:46;99979.75;;;6.00;96.97
59419;BME280;45224;50.904;6.038;2024-03-06T02:04:17;99986.56;;;5.98;96.82
59419;BME280;45224;50.904;6.038;2024-03-06T02:05:49;99982.25;;;5.97;96.49
59419;BME280;45224;50.904;6.038;2024-03-06T02:07:20;99989.03;;;5.95;96.57
59419;BME280;45224;50.904;6.038;2024-03-06T02:08:51;99986.44;;;5.94;96.64
59419;BME280;45224;50.904;6.038;2024-03-06T02:10:22;99984.63;;;5.88;96.51
59419;BME280;45224;50.904;6.038;2024-03-06T02:11:52;99988.00;;;5.87;96.68
59419;BME280;45224;50.904;6.038;2024-03-06T02:13:24;99989.53;;;5.79;97.32
59419;BME280;45224;50.904;6.038;2024-03-06T02:14:55;99991.06;;;5.71;97.94
59419;BME280;45224;50.904;6.038;2024-03-06T02:16:25;99989.31;;;5.70;98.14
59419;BME280;45224;50.904;6.038;2024-03-06T02:17:57;99987.47;;;5.62;98.54
59419;BME280;45224;50.904;6.038;2024-03-06T02:19:41;99984.00;;;5.62;98.82
59419;BME280;45224;50.904;6.038;2024-03-06T02:21:12;99981.44;;;5.60;98.95
59419;BME280;45224;50.904;6.038;2024-03-06T02:22:42;99990.69;;;5.55;99.39
59419;BME280;45224;50.904;6.038;2024-03-06T02:24:13;99991.53;;;5.54;100.00
59419;BME280;45224;50.904;6.038;2024-03-06T02:25:44;99988.13;;;5.55;99.57
59419;BME280;45224;50.904;6.038;2024-03-06T02:27:17;99990.72;;;5.57;99.73
59419;BME280;45224;50.904;6.038;2024-03-06T02:28:53;99992.44;;;5.56;99.45
59419;BME280;45224;50.904;6.038;2024-03-06T02:30:23;99984.56;;;5.48;99.73
59419;BME280;45224;50.904;6.038;2024-03-06T02:31:54;99988.81;;;5.48;100.00
59419;BME280;45224;50.904;6.038;2024-03-06T02:33:24;99990.41;;;5.43;100.00
59419;BME280;45224;50.904;6.038;2024-03-06T02:34:55;99980.25;;;5.46;100.00
59419;BME280;45224;50.904;6.038;2024-03-06T02:36:25;99988.00;;;5.51;100.00
59419;BME280;45224;50.904;6.038;2024-03-06T02:37:56;99984.63;;;5.52;100.00
59419;BME280;45224;50.904;6.038;2024-03-06T02:39:29;99978.66;;;5.51;100.00
59419;BME280;45224;50.904;6.038;2024-03-06T02:41:00;99979.50;;;5.52;99.50
59419;BME280;45224;50.904;6.038;2024-03-06T02:42:30;99986.41;;;5.54;99.59
59419;BME280;45224;50.904;6.038;2024-03-06T02:44:00;99983.84;;;5.54;99.50
59419;BME280;45224;50.904;6.038;2024-03-06T02:45:31;99978.69;;;5.53;99.30
59419;BME280;45224;50.904;6.038;2024-03-06T02:47:01;99985.47;;;5.52;99.66
59419;BME280;45224;50.904;6.038;2024-03-06T02:48:32;99986.25;;;5.48;99.20
59419;BME280;45224;50.904;6.038;2024-03-06T02:50:03;99978.66;;;5.51;99.40
59419;BME280;45224;50.904;6.038;2024-03-06T02:51:33;99982.03;;;5.50;98.93
59419;BME280;45224;50.904;6.038;2024-03-06T02:53:04;99978.66;;;5.51;98.99
59419;BME280;45224;50.904;6.038;2024-03-06T02:54:34;99982.88;;;5.49;99.00
59419;BME280;45224;50.904;6.038;2024-03-06T02:56:05;99981.06;;;5.45;98.86
59419;BME280;45224;50.904;6.038;2024-03-06T02:57:36;99986.16;;;5.43;99.00
59419;BME280;45224;50.904;6.038;2024-03-06T02:59:07;99985.28;;;5.43;99.23
59419;BME280;45224;50.904;6.038;2024-03-06T03:00:39;99978.41;;;5.42;99.23
59419;BME280;45224;50.904;6.038;2024-03-06T03:02:11;99980.25;;;5.46;98.51
59419;BME280;45224;50.904;6.038;2024-03-06T03:03:41;99971.59;;;5.42;98.88
59419;BME280;45224;50.904;6.038;2024-03-06T03:05:14;99979.28;;;5.42;98.33
59419;BME280;45224;50.904;6.038;2024-03-06T03:06:44;99975.97;;;5.46;98.17
59419;BME280;45224;50.904;6.038;2024-03-06T03:08:15;99980.19;;;5.44;98.16
59419;BME280;45224;50.904;6.038;2024-03-06T03:09:46;99979.31;;;5.44;98.17
59419;BME280;45224;50.904;6.038;2024-03-06T03:11:17;99981.91;;;5.45;98.24
59419;BME280;45224;50.904;6.038;2024-03-06T03:12:48;99985.38;;;5.46;97.70
59419;BME280;45224;50.904;6.038;2024-03-06T03:14:18;99985.28;;;5.43;97.78
59419;BME280;45224;50.904;6.038;2024-03-06T03:15:48;99983.63;;;5.45;97.71
59419;BME280;45224;50.904;6.038;2024-03-06T03:17:19;99987.00;;;5.44;97.58
59419;BME280;45224;50.904;6.038;2024-03-06T03:18:49;99979.31;;;5.44;97.49
59419;BME280;45224;50.904;6.038;2024-03-06T03:20:20;99987.00;;;5.44;97.42
59419;BME280;45224;50.904;6.038;2024-03-06T03:21:51;99986.94;;;5.41;97.64
59419;BME280;45224;50.904;6.038;2024-03-06T03:23:21;99978.38;;;5.40;97.05
59419;BME280;45224;50.904;6.038;2024-03-06T03:24:52;99989.50;;;5.41;97.20
59419;BME280;45224;50.904;6.038;2024-03-06T03:26:22;99986.94;;;5.41;96.80
59419;BME280;45224;50.904;6.038;2024-03-06T03:27:53;99986.94;;;5.41;96.99
59419;BME280;45224;50.904;6.038;2024-03-06T03:29:23;99985.22;;;5.40;96.80
59419;BME280;45224;50.904;6.038;2024-03-06T03:30:54;99983.47;;;5.39;96.50
59419;BME280;45224;50.904;6.038;2024-03-06T03:32:24;99989.44;;;5.38;96.16
59419;BME280;45224;50.904;6.038;2024-03-06T03:33:54;99985.97;;;5.36;96.23
59419;BME280;45224;50.904;6.038;2024-03-06T03:35:25;99983.31;;;5.33;96.68
59419;BME280;45224;50.904;6.038;2024-03-06T03:36:55;99992.78;;;5.35;96.48
59419;BME280;45224;50.904;6.038;2024-03-06T03:38:27;99995.34;;;5.35;96.19
59419;BME280;45224;50.904;6.038;2024-03-06T03:39:57;100003.81;;;5.33;95.97
59419;BME280;45224;50.904;6.038;2024-03-06T03:41:27;99999.50;;;5.30;96.18
59419;BME280;45224;50.904;6.038;2024-03-06T03:42:58;99999.47;;;5.28;96.11
59419;BME280;45224;50.904;6.038;2024-03-06T03:44:29;100006.28;;;5.26;96.24
59419;BME280;45224;50.904;6.038;2024-03-06T03:45:59;100005.34;;;5.24;96.09
59419;BME280;45224;50.904;6.038;2024-03-06T03:47:30;100003.63;;;5.23;96.09
59419;BME280;45224;50.904;6.038;2024-03-06T03:49:00;100015.44;;;5.18;95.84
59419;BME280;45224;50.904;6.038;2024-03-06T03:50:31;100014.53;;;5.16;95.50
59419;BME280;45224;50.904;6.038;2024-03-06T03:52:01;100015.25;;;5.10;96.01
59419;BME280;45224;50.904;6.038;2024-03-06T03:53:33;100010.91;;;5.08;95.71
59419;BME280;45224;50.904;6.038;2024-03-06T03:55:04;100013.38;;;5.05;95.92
59419;BME280;45224;50.904;6.038;2024-03-06T03:56:35;100021.03;;;5.03;95.85
59419;BME280;45224;50.904;6.038;2024-03-06T03:58:05;100019.28;;;5.01;96.37
59419;BME280;45224;50.904;6.038;2024-03-06T03:59:38;100017.53;;;5.00;96.43
59419;BME280;45224;50.904;6.038;2024-03-06T04:01:11;100024.38;;;4.99;96.55
59419;BME280;45224;50.904;6.038;2024-03-06T04:02:41;100027.78;;;5.00;96.19
59419;BME280;45224;50.904;6.038;2024-03-06T04:04:13;100026.88;;;4.98;96.13
59419;BME280;45224;50.904;6.038;2024-03-06T04:05:43;100039.69;;;4.98;96.08
59419;BME280;45224;50.904;6.038;2024-03-06T04:07:13;100030.25;;;4.97;96.37
59419;BME280;45224;50.904;6.038;2024-03-06T04:08:46;100041.31;;;4.96;95.88
59419;BME280;45224;50.904;6.038;2024-03-06T04:10:16;100043.81;;;4.92;96.00
59419;BME280;45224;50.904;6.038;2024-03-06T04:11:47;100040.34;;;4.90;95.75
59419;BME280;45224;50.904;6.038;2024-03-06T04:13:17;100048.84;;;4.88;96.08
59419;BME280;45224;50.904;6.038;2024-03-06T04:14:49;100052.16;;;4.85;96.52
59419;BME280;45224;50.904;6.038;2024-03-06T04:16:20;100047.81;;;4.83;96.19
59419;BME280;45224;50.904;6.038;2024-03-06T04:17:50;100047.66;;;4.77;96.92
59419;BME280;45224;50.904;6.038;2024-03-06T04:19:21;100047.59;;;4.73;96.60
59419;BME280;45224;50.904;6.038;2024-03-06T04:20:51;100051.72;;;4.70;96.43
59419;BME280;45224;50.904;6.038;2024-03-06T04:22:22;100057.59;;;4.66;97.21
59419;BME280;45224;50.904;6.038;2024-03-06T04:23:52;100054.28;;;4.68;97.47
59419;BME280;45224;50.904;6.038;2024-03-06T04:25:23;100066.16;;;4.66;97.31
59419;BME280;45224;50.904;6.038;2024-03-06T04:26:53;100058.25;;;4.58;97.38
59419;BME280;45224;50.904;6.038;2024-03-06T04:28:24;100060.78;;;4.57;97.96
59419;BME280;45224;50.904;6.038;2024-03-06T04:29:54;100063.38;;;4.58;97.81
59419;BME280;45224;50.904;6.038;2024-03-06T04:31:25;100063.25;;;4.54;97.80
59419;BME280;45224;50.904;6.038;2024-03-06T04:32:55;100065.78;;;4.52;98.13
59419;BME280;45224;50.904;6.038;2024-03-06T04:34:26;100070.00;;;4.52;98.47
59419;BME280;45224;50.904;6.038;2024-03-06T04:35:56;100069.16;;;4.51;98.24
59419;BME280;45224;50.904;6.038;2024-03-06T04:37:27;100065.69;;;4.49;98.04
59419;BME280;45224;50.904;6.038;2024-03-06T04:38:59;100060.44;;;4.45;98.75
59419;BME280;45224;50.904;6.038;2024-03-06T04:40:29;100068.97;;;4.45;98.29
59419;BME280;45224;50.904;6.038;2024-03-06T04:42:00;100071.63;;;4.48;98.17
59419;BME280;45224;50.904;6.038;2024-03-06T04:43:31;100063.88;;;4.47;97.97
59419;BME280;45224;50.904;6.038;2024-03-06T04:45:11;100073.38;;;4.49;98.33
59419;BME280;45224;50.904;6.038;2024-03-06T04:46:42;100068.91;;;4.44;98.43
59419;BME280;45224;50.904;6.038;2024-03-06T04:48:13;100071.38;;;4.41;98.90
59419;BME280;45224;50.904;6.038;2024-03-06T04:49:43;100071.44;;;4.42;98.96
59419;BME280;45224;50.904;6.038;2024-03-06T04:51:14;100073.03;;;4.38;99.38
59419;BME280;45224;50.904;6.038;2024-03-06T04:52:44;100072.13;;;4.36;99.45
59419;BME280;45224;50.904;6.038;2024-03-06T04:54:15;100072.09;;;4.35;99.74
59419;BME280;45224;50.904;6.038;2024-03-06T04:55:46;100066.19;;;4.37;99.39
59419;BME280;45224;50.904;6.038;2024-03-06T04:57:16;100074.66;;;4.35;100.00
59419;BME280;45224;50.904;6.038;2024-03-06T04:58:47;100082.44;;;4.38;99.21
59419;BME280;45224;50.904;6.038;2024-03-06T05:00:17;100078.13;;;4.37;99.58
59419;BME280;45224;50.904;6.038;2024-03-06T05:01:48;100082.38;;;4.36;99.07
59419;BME280;45224;50.904;6.038;2024-03-06T05:03:19;100086.53;;;4.33;99.55
59419;BME280;45224;50.904;6.038;2024-03-06T05:04:50;100074.47;;;4.29;99.62
59419;BME280;45224;50.904;6.038;2024-03-06T05:06:21;100074.66;;;4.35;99.65
59419;BME280;45224;50.904;6.038;2024-03-06T05:07:52;100081.44;;;4.33;99.68
59419;BME280;45224;50.904;6.038;2024-03-06T05:09:22;100088.25;;;4.34;99.74
59419;BME280;45224;50.904;6.038;2024-03-06T05:10:53;100091.66;;;4.33;99.88
59419;BME280;45224;50.904;6.038;2024-03-06T05:12:24;100087.34;;;4.32;99.73
59419;BME280;45224;50.904;6.038;2024-03-06T05:13:54;100093.38;;;4.34;99.13
59419;BME280;45224;50.904;6.038;2024-03-06T05:15:25;100092.53;;;4.33;99.69
59419;BME280;45224;50.904;6.038;2024-03-06T05:16:55;100091.66;;;4.33;99.55
59419;BME280;45224;50.904;6.038;2024-03-06T05:18:26;100095.84;;;4.31;99.34
59419;BME280;45224;50.904;6.038;2024-03-06T05:19:56;100093.28;;;4.31;99.55
59419;BME280;45224;50.904;6.038;2024-03-06T05:21:27;100096.69;;;4.30;99.50
59419;BME280;45224;50.904;6.038;2024-03-06T05:22:57;100094.94;;;4.29;99.87
59419;BME280;45224;50.904;6.038;2024-03-06T05:24:28;100098.41;;;4.31;99.48
59419;BME280;45224;50.904;6.038;2024-03-06T05:25:58;100096.69;;;4.30;99.28
59419;BME280;45224;50.904;6.038;2024-03-06T05:27:28;100100.19;;;4.33;99.34
59419;BME280;45224;50.904;6.038;2024-03-06T05:28:59;100100.16;;;4.32;98.77
59419;BME280;45224;50.904;6.038;2024-03-06T05:30:29;100103.53;;;4.31;98.75
59419;BME280;45224;50.904;6.038;2024-03-06T05:32:00;100115.50;;;4.32;98.73
59419;BME280;45224;50.904;6.038;2024-03-06T05:33:30;100115.50;;;4.32;98.73
59419;BME280;45224;50.904;6.038;2024-03-06T05:35:01;100122.28;;;4.30;98.65
59419;BME280;45224;50.904;6.038;2024-03-06T05:36:34;100113.72;;;4.29;99.35
59419;BME280;45224;50.904;6.038;2024-03-06T05:38:04;100117.22;;;4.31;99.17
59419;BME280;45224;50.904;6.038;2024-03-06T05:39:36;100116.38;;;4.32;98.76
59419;BME280;45224;50.904;6.038;2024-03-06T05:41:07;100122.38;;;4.33;98.58
59419;BME280;45224;50.904;6.038;2024-03-06T05:42:39;100119.81;;;4.33;98.09
59419;BME280;45224;50.904;6.038;2024-03-06T05:44:10;100112.97;;;4.32;97.99
59419;BME280;45224;50.904;6.038;2024-03-06T05:45:40;100122.38;;;4.33;98.00
59419;BME280;45224;50.904;6.038;2024-03-06T05:47:11;100112.72;;;4.24;98.10
59419;BME280;45224;50.904;6.038;2024-03-06T05:48:41;100123.91;;;4.28;98.67
59419;BME280;45224;50.904;6.038;2024-03-06T05:50:12;100123.81;;;4.25;98.88
59419;BME280;45224;50.904;6.038;2024-03-06T05:51:43;100123.81;;;4.25;98.96
59419;BME280;45224;50.904;6.038;2024-03-06T05:53:15;100127.22;;;4.24;98.91
59419;BME280;45224;50.904;6.038;2024-03-06T05:54:45;100127.13;;;4.20;98.68
59419;BME280;45224;50.904;6.038;2024-03-06T05:56:17;100132.22;;;4.20;99.18
59419;BME280;45224;50.904;6.038;2024-03-06T05:57:48;100132.19;;;4.19;99.25
59419;BME280;45224;50.904;6.038;2024-03-06T05:59:19;100129.56;;;4.17;99.14
59419;BME280;45224;50.904;6.038;2024-03-06T06:00:50;100132.13;;;4.17;99.16
59419;BME280;45224;50.904;6.038;2024-03-06T06:02:20;100132.84;;;4.13;100.00
59419;BME280;45224;50.904;6.038;2024-03-06T06:03:50;100138.69;;;4.09;99.91
59419;BME280;45224;50.904;6.038;2024-03-06T06:05:21;100147.19;;;4.08;100.00
59419;BME280;45224;50.904;6.038;2024-03-06T06:06:53;100142.91;;;4.07;100.00
59419;BME280;45224;50.904;6.038;2024-03-06T06:08:23;100142.91;;;4.07;100.00
59419;BME280;45224;50.904;6.038;2024-03-06T06:09:54;100145.47;;;4.07;100.00
59419;BME280;45224;50.904;6.038;2024-03-06T06:11:24;100137.75;;;4.06;100.00
59419;BME280;45224;50.904;6.038;2024-03-06T06:12:55;100146.44;;;4.11;100.00
59419;BME280;45224;50.904;6.038;2024-03-06T06:14:26;100151.56;;;4.11;100.00
59419;BME280;45224;50.904;6.038;2024-03-06T06:15:59;100152.47;;;4.13;99.81
59419;BME280;45224;50.904;6.038;2024-03-06T06:17:33;100158.38;;;4.10;100.00
59419;BME280;45224;50.904;6.038;2024-03-06T06:19:04;100164.09;;;4.03;100.00
59419;BME280;45224;50.904;6.038;2024-03-06T06:20:35;100162.53;;;4.08;100.00
59419;BME280;45224;50.904;6.038;2024-03-06T06:22:06;100164.28;;;4.09;99.79
59419;BME280;45224;50.904;6.038;2024-03-06T06:23:36;100170.31;;;4.11;99.32
59419;BME280;45224;50.904;6.038;2024-03-06T06:25:07;100173.78;;;4.13;99.26
59419;BME280;45224;50.904;6.038;2024-03-06T06:26:37;100172.06;;;4.12;99.23
59419;BME280;45224;50.904;6.038;2024-03-06T06:28:08;100172.97;;;4.14;99.37
59419;BME280;45224;50.904;6.038;2024-03-06T06:29:40;100172.97;;;4.14;98.87
59419;BME280;45224;50.904;6.038;2024-03-06T06:31:12;100172.97;;;4.14;99.25
59419;BME280;45224;50.904;6.038;2024-03-06T06:32:42;100174.72;;;4.15;99.00
59419;BME280;45224;50.904;6.038;2024-03-06T06:34:13;100176.44;;;4.16;99.04
59419;BME280;45224;50.904;6.038;2024-03-06T06:35:43;100183.31;;;4.17;99.34
59419;BME280;45224;50.904;6.038;2024-03-06T06:37:14;100186.69;;;4.16;99.29
59419;BME280;45224;50.904;6.038;2024-03-06T06:38:46;100188.50;;;4.19;99.35
59419;BME280;45224;50.904;6.038;2024-03-06T06:40:17;100187.56;;;4.17;98.94
59419;BME280;45224;50.904;6.038;2024-03-06T06:41:49;100197.13;;;4.23;99.32
59419;BME280;45224;50.904;6.038;2024-03-06T06:43:20;100196.25;;;4.22;98.68
59419;BME280;45224;50.904;6.038;2024-03-06T06:44:50;100200.59;;;4.25;99.02
59419;BME280;45224;50.904;6.038;2024-03-06T06:46:21;100192.09;;;4.26;98.73
59419;BME280;45224;50.904;6.038;2024-03-06T06:47:51;100199.84;;;4.27;98.74
59419;BME280;45224;50.904;6.038;2024-03-06T06:49:22;100196.47;;;4.28;98.55
59419;BME280;45224;50.904;6.038;2024-03-06T06:50:52;100208.47;;;4.31;98.43
59419;BME280;45224;50.904;6.038;2024-03-06T06:52:22;100204.19;;;4.30;98.34
59419;BME280;45224;50.904;6.038;2024-03-06T06:53:53;100210.19;;;4.30;98.66
59419;BME280;45224;50.904;6.038;2024-03-06T06:55:25;100206.75;;;4.30;98.87
59419;BME280;45224;50.904;6.038;2024-03-06T06:56:56;100206.72;;;4.28;98.71
59419;BME280;45224;50.904;6.038;2024-03-06T06:58:26;100206.91;;;4.34;99.13
59419;BME280;45224;50.904;6.038;2024-03-06T07:00:01;100210.44;;;4.38;99.18
59419;BME280;45224;50.904;6.038;2024-03-06T07:01:31;100216.56;;;4.43;99.03
59419;BME280;45224;50.904;6.038;2024-03-06T07:03:03;100215.00;;;4.48;99.19
59419;BME280;45224;50.904;6.038;2024-03-06T07:04:34;100210.78;;;4.50;99.72
59419;BME280;45224;50.904;6.038;2024-03-06T07:06:04;100215.91;;;4.50;100.00
59419;BME280;45224;50.904;6.038;2024-03-06T07:07:35;100222.13;;;4.58;100.00
59419;BME280;45224;50.904;6.038;2024-03-06T07:09:06;100218.88;;;4.63;100.00
59419;BME280;45224;50.904;6.038;2024-03-06T07:10:39;100219.06;;;4.69;100.00
59419;BME280;45224;50.904;6.038;2024-03-06T07:12:10;100218.19;;;4.68;100.00
59419;BME280;45224;50.904;6.038;2024-03-06T07:13:40;100218.38;;;4.74;100.00
59419;BME280;45224;50.904;6.038;2024-03-06T07:15:10;100224.38;;;4.75;100.00
59419;BME280;45224;50.904;6.038;2024-03-06T07:16:42;100227.91;;;4.79;100.00
59419;BME280;45224;50.904;6.038;2024-03-06T07:18:13;100230.66;;;4.85;100.00
59419;BME280;45224;50.904;6.038;2024-03-06T07:19:44;100235.97;;;4.91;100.00
59419;BME280;45224;50.904;6.038;2024-03-06T07:21:14;100233.41;;;4.92;100.00
59419;BME280;45224;50.904;6.038;2024-03-06T07:22:45;100230.94;;;4.96;100.00
59419;BME280;45224;50.904;6.038;2024-03-06T07:24:15;100229.38;;;4.99;99.66
59419;BME280;45224;50.904;6.038;2024-03-06T07:25:45;100230.22;;;5.00;100.00
59419;BME280;45224;50.904;6.038;2024-03-06T07:27:16;100233.78;;;5.05;99.62
59419;BME280;45224;50.904;6.038;2024-03-06T07:28:47;100238.19;;;5.09;99.22
59419;BME280;45224;50.904;6.038;2024-03-06T07:30:17;100237.41;;;5.11;99.20
59419;BME280;45224;50.904;6.038;2024-03-06T07:31:48;100238.34;;;5.14;99.03
59419;BME280;45224;50.904;6.038;2024-03-06T07:33:18;100240.16;;;5.18;99.07
59419;BME280;45224;50.904;6.038;2024-03-06T07:34:49;100241.09;;;5.21;99.51
59419;BME280;45224;50.904;6.038;2024-03-06T07:36:20;100241.28;;;5.27;99.26
59419;BME280;45224;50.904;6.038;2024-03-06T07:37:51;100244.03;;;5.34;99.45
59419;BME280;45224;50.904;6.038;2024-03-06T07:39:21;100247.63;;;5.40;99.12
59419;BME280;45224;50.904;6.038;2024-03-06T07:40:52;100252.16;;;5.49;99.23
59419;BME280;45224;50.904;6.038;2024-03-06T07:42:23;100258.28;;;5.54;99.03
59419;BME280;45224;50.904;6.038;2024-03-06T07:43:54;100256.75;;;5.61;99.02
59419;BME280;45224;50.904;6.038;2024-03-06T07:45:24;100254.97;;;5.58;98.02
59419;BME280;45224;50.904;6.038;2024-03-06T07:46:55;100256.88;;;5.65;98.42
59419;BME280;45224;50.904;6.038;2024-03-06T07:48:25;100261.28;;;5.71;98.38
59419;BME280;45224;50.904;6.038;2024-03-06T07:49:56;100261.56;;;5.80;98.36
59419;BME280;45224;50.904;6.038;2024-03-06T07:51:26;100265.28;;;5.92;98.33
59419;BME280;45224;50.904;6.038;2024-03-06T07:52:57;100259.50;;;5.99;98.24
59419;BME280;45224;50.904;6.038;2024-03-06T07:54:27;100257.16;;;6.08;97.97
59419;BME280;45224;50.904;6.038;2024-03-06T07:55:58;100265.06;;;6.16;97.24
59419;BME280;45224;50.904;6.038;2024-03-06T07:57:28;100266.19;;;6.26;97.19
59419;BME280;45224;50.904;6.038;2024-03-06T07:59:00;100264.78;;;6.38;97.72
59419;BME280;45224;50.904;6.038;2024-03-06T08:00:30;100264.19;;;6.50;98.04
59419;BME280;45224;50.904;6.038;2024-03-06T08:02:01;100258.44;;;6.59;97.33
59419;BME280;45224;50.904;6.038;2024-03-06T08:03:32;100263.84;;;6.71;97.36